sensor_id;sensor_type;location;lat;lon;timestamp;temperature;humidity
21340;DHT22;10828;47.064;15.422;2023-05-07T00:00:21;16.10;99.90
21340;DHT22;10828;47.064;15.422;2023-05-07T00:02:47;16.00;99.90
21340;DHT22;10828;47.064;15.422;2023-05-07T00:05:15;16.00;99.90
21340;DHT22;10828;47.064;15.422;2023-05-07T00:07:41;16.00;99.90
21340;DHT22;10828;47.064;15.422;2023-05-07T00:10:07;16.00;99.90
21340;DHT22;10828;47.064;15.422;2023-05-07T00:12:33;16.00;99.90
21340;DHT22;10828;47.064;15.422;2023-05-07T00:15:05;16.00;99.90
21340;DHT22;10828;47.064;15.422;2023-05-07T00:17:32;16.00;99.90
21340;DHT22;10828;47.064;15.422;2023-05-07T00:19:58;15.90;99.90
21340;DHT22;10828;47.064;15.422;2023-05-07T00:22:23;16.00;99.90
21340;DHT22;10828;47.064;15.422;2023-05-07T00:24:49;16.00;99.90
21340;DHT22;10828;47.064;15.422;2023-05-07T00:27:17;15.90;99.90
21340;DHT22;10828;47.064;15.422;2023-05-07T00:29:42;15.90;99.90
21340;DHT22;10828;47.064;15.422;2023-05-07T00:32:08;15.90;99.90
21340;DHT22;10828;47.064;15.422;2023-05-07T00:34:34;16.00;99.90
21340;DHT22;10828;47.064;15.422;2023-05-07T00:37:01;15.80;99.90
21340;DHT22;10828;47.064;15.422;2023-05-07T00:39:27;15.70;99.90
21340;DHT22;10828;47.064;15.422;2023-05-07T00:41:52;15.70;99.90
21340;DHT22;10828;47.064;15.422;2023-05-07T00:44:18;15.60;99.90
21340;DHT22;10828;47.064;15.422;2023-05-07T00:46:44;15.60;99.90
21340;DHT22;10828;47.064;15.422;2023-05-07T00:49:10;15.60;99.90
21340;DHT22;10828;47.064;15.422;2023-05-07T00:51:36;15.60;99.90
21340;DHT22;10828;47.064;15.422;2023-05-07T00:54:03;15.50;99.90
21340;DHT22;10828;47.064;15.422;2023-05-07T00:56:28;15.60;99.90
21340;DHT22;10828;47.064;15.422;2023-05-07T00:58:54;15.60;99.90
21340;DHT22;10828;47.064;15.422;2023-05-07T01:01:25;15.60;99.90
21340;DHT22;10828;47.064;15.422;2023-05-07T01:03:52;15.60;99.90
21340;DHT22;10828;47.064;15.422;2023-05-07T01:06:21;15.70;99.90
21340;DHT22;10828;47.064;15.422;2023-05-07T01:08:49;15.70;99.90
21340;DHT22;10828;47.064;15.422;2023-05-07T01:11:16;15.80;99.90
21340;DHT22;10828;47.064;15.422;2023-05-07T01:13:46;15.80;99.90
21340;DHT22;10828;47.064;15.422;2023-05-07T01:16:12;15.80;99.90
21340;DHT22;10828;47.064;15.422;2023-05-07T01:18:37;15.70;99.90
21340;DHT22;10828;47.064;15.422;2023-05-07T01:21:04;15.70;99.90
21340;DHT22;10828;47.064;15.422;2023-05-07T01:23:30;15.80;99.90
21340;DHT22;10828;47.064;15.422;2023-05-07T01:26:02;15.70;99.90
21340;DHT22;10828;47.064;15.422;2023-05-07T01:28:27;15.70;99.90
21340;DHT22;10828;47.064;15.422;2023-05-07T01:30:56;15.60;99.90
21340;DHT22;10828;47.064;15.422;2023-05-07T01:33:24;15.50;99.90
21340;DHT22;10828;47.064;15.422;2023-05-07T01:35:53;15.50;99.90
21340;DHT22;10828;47.064;15.422;2023-05-07T01:38:20;15.50;99.90
21340;DHT22;10828;47.064;15.422;2023-05-07T01:40:48;15.50;99.90
21340;DHT22;10828;47.064;15.422;2023-05-07T01:43:14;15.50;99.90
21340;DHT22;10828;47.064;15.422;2023-05-07T01:45:40;15.60;99.90
21340;DHT22;10828;47.064;15.422;2023-05-07T01:48:07;15.60;99.90
21340;DHT22;10828;47.064;15.422;2023-05-07T01:50:33;15.50;99.90
21340;DHT22;10828;47.064;15.422;2023-05-07T01:53:01;15.50;99.90
21340;DHT22;10828;47.064;15.422;2023-05-07T01:55:27;15.50;99.90
21340;DHT22;10828;47.064;15.422;2023-05-07T01:57:52;15.60;99.90
21340;DHT22;10828;47.064;15.422;2023-05-07T02:00:18;15.60;99.90
21340;DHT22;10828;47.064;15.422;2023-05-07T02:02:44;15.60;99.90
21340;DHT22;10828;47.064;15.422;2023-05-07T02:05:10;15.50;99.90
21340;DHT22;10828;47.064;15.422;2023-05-07T02:07:36;15.40;99.90
21340;DHT22;10828;47.064;15.422;2023-05-07T02:10:02;15.40;99.90
21340;DHT22;10828;47.064;15.422;2023-05-07T02:12:28;15.40;99.90
21340;DHT22;10828;47.064;15.422;2023-05-07T02:14:55;15.50;99.90
21340;DHT22;10828;47.064;15.422;2023-05-07T02:17:21;15.40;99.90
21340;DHT22;10828;47.064;15.422;2023-05-07T02:19:50;15.30;99.90
21340;DHT22;10828;47.064;15.422;2023-05-07T02:22:16;15.20;99.90
21340;DHT22;10828;47.064;15.422;2023-05-07T02:24:44;15.10;99.90
21340;DHT22;10828;47.064;15.422;2023-05-07T02:27:10;15.00;99.90
21340;DHT22;10828;47.064;15.422;2023-05-07T02:29:35;14.90;99.90
21340;DHT22;10828;47.064;15.422;2023-05-07T02:32:03;14.80;99.90
21340;DHT22;10828;47.064;15.422;2023-05-07T02:34:29;14.80;99.90
21340;DHT22;10828;47.064;15.422;2023-05-07T02:36:55;14.80;99.90
21340;DHT22;10828;47.064;15.422;2023-05-07T02:39:21;14.80;99.90
21340;DHT22;10828;47.064;15.422;2023-05-07T02:41:46;14.80;99.90
21340;DHT22;10828;47.064;15.422;2023-05-07T02:44:13;14.90;99.90
21340;DHT22;10828;47.064;15.422;2023-05-07T02:46:38;14.80;99.90
21340;DHT22;10828;47.064;15.422;2023-05-07T02:49:04;14.80;99.90
21340;DHT22;10828;47.064;15.422;2023-05-07T02:51:30;14.70;99.90
21340;DHT22;10828;47.064;15.422;2023-05-07T02:53:57;14.70;99.90
21340;DHT22;10828;47.064;15.422;2023-05-07T02:56:22;14.70;99.90
21340;DHT22;10828;47.064;15.422;2023-05-07T02:58:48;14.70;99.90
21340;DHT22;10828;47.064;15.422;2023-05-07T03:01:14;14.60;99.90
21340;DHT22;10828;47.064;15.422;2023-05-07T03:03:40;14.60;99.90
21340;DHT22;10828;47.064;15.422;2023-05-07T03:06:07;14.60;99.90
21340;DHT22;10828;47.064;15.422;2023-05-07T03:08:33;14.60;99.90
21340;DHT22;10828;47.064;15.422;2023-05-07T03:10:59;14.60;99.90
21340;DHT22;10828;47.064;15.422;2023-05-07T03:13:25;14.60;99.90
21340;DHT22;10828;47.064;15.422;2023-05-07T03:15:50;14.60;99.90
21340;DHT22;10828;47.064;15.422;2023-05-07T03:18:16;14.50;99.90
21340;DHT22;10828;47.064;15.422;2023-05-07T03:20:41;14.40;99.90
21340;DHT22;10828;47.064;15.422;2023-05-07T03:23:07;14.30;99.90
21340;DHT22;10828;47.064;15.422;2023-05-07T03:25:36;14.30;99.90
21340;DHT22;10828;47.064;15.422;2023-05-07T03:28:02;14.20;99.90
21340;DHT22;10828;47.064;15.422;2023-05-07T03:30:28;14.30;99.90
21340;DHT22;10828;47.064;15.422;2023-05-07T03:32:53;14.30;99.90
21340;DHT22;10828;47.064;15.422;2023-05-07T03:35:19;14.30;99.90
21340;DHT22;10828;47.064;15.422;2023-05-07T03:37:45;14.30;99.90
21340;DHT22;10828;47.064;15.422;2023-05-07T03:40:11;14.20;99.90
21340;DHT22;10828;47.064;15.422;2023-05-07T03:42:37;14.10;99.90
21340;DHT22;10828;47.064;15.422;2023-05-07T03:45:04;14.00;99.90
21340;DHT22;10828;47.064;15.422;2023-05-07T03:47:31;14.10;99.90
21340;DHT22;10828;47.064;15.422;2023-05-07T03:49:58;14.20;99.90
21340;DHT22;10828;47.064;15.422;2023-05-07T03:52:24;14.20;99.90
21340;DHT22;10828;47.064;15.422;2023-05-07T03:54:52;14.20;99.90
21340;DHT22;10828;47.064;15.422;2023-05-07T03:57:19;14.00;99.90
21340;DHT22;10828;47.064;15.422;2023-05-07T03:59:44;14.00;99.90
21340;DHT22;10828;47.064;15.422;2023-05-07T04:02:10;14.10;99.90
21340;DHT22;10828;47.064;15.422;2023-05-07T04:04:36;14.20;99.90
21340;DHT22;10828;47.064;15.422;2023-05-07T04:07:01;14.10;99.90
21340;DHT22;10828;47.064;15.422;2023-05-07T04:09:29;14.10;99.90
21340;DHT22;10828;47.064;15.422;2023-05-07T04:11:59;14.10;99.90
21340;DHT22;10828;47.064;15.422;2023-05-07T04:14:26;14.10;99.90
21340;DHT22;10828;47.064;15.422;2023-05-07T04:16:59;14.00;99.90
21340;DHT22;10828;47.064;15.422;2023-05-07T04:19:26;14.00;99.90
21340;DHT22;10828;47.064;15.422;2023-05-07T04:21:51;14.00;99.90
21340;DHT22;10828;47.064;15.422;2023-05-07T04:24:21;14.10;99.90
21340;DHT22;10828;47.064;15.422;2023-05-07T04:26:47;14.00;99.90
21340;DHT22;10828;47.064;15.422;2023-05-07T04:29:12;14.00;99.90
21340;DHT22;10828;47.064;15.422;2023-05-07T04:31:38;14.10;99.90
21340;DHT22;10828;47.064;15.422;2023-05-07T04:34:04;14.10;99.90
21340;DHT22;10828;47.064;15.422;2023-05-07T04:36:30;14.20;99.90
21340;DHT22;10828;47.064;15.422;2023-05-07T04:39:05;14.10;99.90
21340;DHT22;10828;47.064;15.422;2023-05-07T04:41:31;14.20;99.90
21340;DHT22;10828;47.064;15.422;2023-05-07T04:43:57;14.10;99.90
21340;DHT22;10828;47.064;15.422;2023-05-07T04:46:24;14.10;99.90
21340;DHT22;10828;47.064;15.422;2023-05-07T04:48:50;14.00;99.90
21340;DHT22;10828;47.064;15.422;2023-05-07T04:51:15;14.00;99.90
21340;DHT22;10828;47.064;15.422;2023-05-07T04:53:42;14.00;99.90
21340;DHT22;10828;47.064;15.422;2023-05-07T04:56:08;14.00;99.90
21340;DHT22;10828;47.064;15.422;2023-05-07T04:58:34;14.00;99.90
21340;DHT22;10828;47.064;15.422;2023-05-07T05:01:00;14.00;99.90
21340;DHT22;10828;47.064;15.422;2023-05-07T05:03:26;14.10;99.90
21340;DHT22;10828;47.064;15.422;2023-05-07T05:05:52;14.10;99.90
21340;DHT22;10828;47.064;15.422;2023-05-07T05:08:18;14.10;99.90
21340;DHT22;10828;47.064;15.422;2023-05-07T05:10:44;14.20;99.90
21340;DHT22;10828;47.064;15.422;2023-05-07T05:13:10;14.20;99.90
21340;DHT22;10828;47.064;15.422;2023-05-07T05:15:38;14.20;99.90
21340;DHT22;10828;47.064;15.422;2023-05-07T05:18:04;14.30;99.90
21340;DHT22;10828;47.064;15.422;2023-05-07T05:20:30;14.30;99.90
21340;DHT22;10828;47.064;15.422;2023-05-07T05:22:55;14.30;99.90
21340;DHT22;10828;47.064;15.422;2023-05-07T05:25:21;14.40;99.90
21340;DHT22;10828;47.064;15.422;2023-05-07T05:27:47;14.50;99.90
21340;DHT22;10828;47.064;15.422;2023-05-07T05:30:13;14.60;99.90
21340;DHT22;10828;47.064;15.422;2023-05-07T05:32:39;14.60;99.90
21340;DHT22;10828;47.064;15.422;2023-05-07T05:35:05;14.60;99.90
21340;DHT22;10828;47.064;15.422;2023-05-07T05:37:31;14.60;99.90
21340;DHT22;10828;47.064;15.422;2023-05-07T05:39:57;14.70;99.90
21340;DHT22;10828;47.064;15.422;2023-05-07T05:42:23;14.80;99.90
21340;DHT22;10828;47.064;15.422;2023-05-07T05:44:48;14.80;99.90
21340;DHT22;10828;47.064;15.422;2023-05-07T05:47:14;14.80;99.90
21340;DHT22;10828;47.064;15.422;2023-05-07T05:49:40;14.80;99.90
21340;DHT22;10828;47.064;15.422;2023-05-07T05:52:06;14.80;99.90
21340;DHT22;10828;47.064;15.422;2023-05-07T05:54:32;14.80;99.90
21340;DHT22;10828;47.064;15.422;2023-05-07T05:56:58;14.80;99.90
21340;DHT22;10828;47.064;15.422;2023-05-07T05:59:28;14.90;99.90
21340;DHT22;10828;47.064;15.422;2023-05-07T06:01:56;14.90;99.90
21340;DHT22;10828;47.064;15.422;2023-05-07T06:04:22;14.90;99.90
21340;DHT22;10828;47.064;15.422;2023-05-07T06:06:49;14.90;99.90
21340;DHT22;10828;47.064;15.422;2023-05-07T06:09:15;14.90;99.90
21340;DHT22;10828;47.064;15.422;2023-05-07T06:11:43;15.00;99.90
21340;DHT22;10828;47.064;15.422;2023-05-07T06:14:09;15.00;99.90
21340;DHT22;10828;47.064;15.422;2023-05-07T06:16:34;15.00;99.90
21340;DHT22;10828;47.064;15.422;2023-05-07T06:19:00;15.10;99.90
21340;DHT22;10828;47.064;15.422;2023-05-07T06:21:27;15.20;99.90
21340;DHT22;10828;47.064;15.422;2023-05-07T06:23:53;15.10;99.90
21340;DHT22;10828;47.064;15.422;2023-05-07T06:26:21;15.10;99.90
21340;DHT22;10828;47.064;15.422;2023-05-07T06:28:48;15.20;99.90
21340;DHT22;10828;47.064;15.422;2023-05-07T06:31:19;15.20;99.90
21340;DHT22;10828;47.064;15.422;2023-05-07T06:33:51;15.30;99.90
21340;DHT22;10828;47.064;15.422;2023-05-07T06:36:18;15.40;99.90
21340;DHT22;10828;47.064;15.422;2023-05-07T06:38:44;15.50;99.90
21340;DHT22;10828;47.064;15.422;2023-05-07T06:41:10;15.60;99.90
21340;DHT22;10828;47.064;15.422;2023-05-07T06:43:35;15.70;99.90
21340;DHT22;10828;47.064;15.422;2023-05-07T06:46:03;15.80;99.90
21340;DHT22;10828;47.064;15.422;2023-05-07T06:48:28;15.90;99.90
21340;DHT22;10828;47.064;15.422;2023-05-07T06:50:55;16.00;99.90
21340;DHT22;10828;47.064;15.422;2023-05-07T06:53:23;16.10;99.90
21340;DHT22;10828;47.064;15.422;2023-05-07T06:55:49;16.20;99.90
21340;DHT22;10828;47.064;15.422;2023-05-07T06:58:14;16.30;99.90
21340;DHT22;10828;47.064;15.422;2023-05-07T07:00:40;16.40;99.90
21340;DHT22;10828;47.064;15.422;2023-05-07T07:03:06;16.50;99.90
21340;DHT22;10828;47.064;15.422;2023-05-07T07:05:32;16.60;99.90
21340;DHT22;10828;47.064;15.422;2023-05-07T07:07:58;16.70;99.90
21340;DHT22;10828;47.064;15.422;2023-05-07T07:10:25;16.80;99.90
21340;DHT22;10828;47.064;15.422;2023-05-07T07:12:50;16.80;99.90
21340;DHT22;10828;47.064;15.422;2023-05-07T07:15:17;17.00;99.90
21340;DHT22;10828;47.064;15.422;2023-05-07T07:17:43;17.10;99.90
21340;DHT22;10828;47.064;15.422;2023-05-07T07:20:09;17.20;99.90
21340;DHT22;10828;47.064;15.422;2023-05-07T07:22:37;17.30;99.90
21340;DHT22;10828;47.064;15.422;2023-05-07T07:25:10;17.40;99.90
21340;DHT22;10828;47.064;15.422;2023-05-07T07:27:39;17.50;99.90
21340;DHT22;10828;47.064;15.422;2023-05-07T07:30:14;17.50;99.90
21340;DHT22;10828;47.064;15.422;2023-05-07T07:32:43;17.60;99.90
21340;DHT22;10828;47.064;15.422;2023-05-07T07:35:28;17.60;99.90
21340;DHT22;10828;47.064;15.422;2023-05-07T07:38:11;17.60;99.90
21340;DHT22;10828;47.064;15.422;2023-05-07T07:40:39;17.70;99.90
21340;DHT22;10828;47.064;15.422;2023-05-07T07:43:07;17.90;99.90
21340;DHT22;10828;47.064;15.422;2023-05-07T07:45:48;18.00;99.90
21340;DHT22;10828;47.064;15.422;2023-05-07T07:48:23;18.00;99.90
21340;DHT22;10828;47.064;15.422;2023-05-07T07:51:00;18.00;99.90
21340;DHT22;10828;47.064;15.422;2023-05-07T07:54:01;18.00;99.90
21340;DHT22;10828;47.064;15.422;2023-05-07T07:56:34;18.10;99.90
21340;DHT22;10828;47.064;15.422;2023-05-07T07:59:39;18.30;99.90
21340;DHT22;10828;47.064;15.422;2023-05-07T08:02:25;18.40;99.90
21340;DHT22;10828;47.064;15.422;2023-05-07T08:04:54;18.30;99.90
21340;DHT22;10828;47.064;15.422;2023-05-07T08:07:21;18.40;99.90
21340;DHT22;10828;47.064;15.422;2023-05-07T08:09:49;18.40;99.90
21340;DHT22;10828;47.064;15.422;2023-05-07T08:12:34;18.50;99.90
21340;DHT22;10828;47.064;15.422;2023-05-07T08:18:54;18.40;99.90
21340;DHT22;10828;47.064;15.422;2023-05-07T08:21:39;18.50;99.90
21340;DHT22;10828;47.064;15.422;2023-05-07T08:24:26;18.60;99.90
21340;DHT22;10828;47.064;15.422;2023-05-07T08:36:15;18.60;99.90
21340;DHT22;10828;47.064;15.422;2023-05-07T11:46:08;23.20;99.90
21340;DHT22;10828;47.064;15.422;2023-05-07T11:48:36;23.30;99.90
21340;DHT22;10828;47.064;15.422;2023-05-07T11:51:41;23.40;99.90
21340;DHT22;10828;47.064;15.422;2023-05-07T11:54:37;23.40;99.90
21340;DHT22;10828;47.064;15.422;2023-05-07T11:57:19;23.40;99.90
21340;DHT22;10828;47.064;15.422;2023-05-07T11:59:46;23.50;99.90
21340;DHT22;10828;47.064;15.422;2023-05-07T12:02:17;23.50;99.90
21340;DHT22;10828;47.064;15.422;2023-05-07T12:04:45;23.30;99.90
21340;DHT22;10828;47.064;15.422;2023-05-07T12:07:12;23.20;99.90
21340;DHT22;10828;47.064;15.422;2023-05-07T12:09:41;23.40;99.90
21340;DHT22;10828;47.064;15.422;2023-05-07T12:12:09;23.20;99.90
21340;DHT22;10828;47.064;15.422;2023-05-07T13:28:18;19.70;99.90
21340;DHT22;10828;47.064;15.422;2023-05-07T13:31:05;19.30;99.90
21340;DHT22;10828;47.064;15.422;2023-05-07T13:33:53;19.00;99.90
21340;DHT22;10828;47.064;15.422;2023-05-07T13:36:22;18.70;99.90
21340;DHT22;10828;47.064;15.422;2023-05-07T13:38:52;18.80;99.90
21340;DHT22;10828;47.064;15.422;2023-05-07T13:41:28;18.90;99.90
21340;DHT22;10828;47.064;15.422;2023-05-07T13:43:58;19.00;99.90
21340;DHT22;10828;47.064;15.422;2023-05-07T13:46:26;19.10;99.90
21340;DHT22;10828;47.064;15.422;2023-05-07T13:48:53;19.20;99.90
21340;DHT22;10828;47.064;15.422;2023-05-07T13:51:25;19.10;99.90
21340;DHT22;10828;47.064;15.422;2023-05-07T13:53:53;19.00;99.90
21340;DHT22;10828;47.064;15.422;2023-05-07T13:56:30;18.70;99.90
21340;DHT22;10828;47.064;15.422;2023-05-07T13:58:59;18.60;99.90
21340;DHT22;10828;47.064;15.422;2023-05-07T14:01:27;18.40;99.90
21340;DHT22;10828;47.064;15.422;2023-05-07T14:03:54;18.30;99.90
21340;DHT22;10828;47.064;15.422;2023-05-07T14:06:27;18.20;99.90
21340;DHT22;10828;47.064;15.422;2023-05-07T14:08:57;18.10;99.90
21340;DHT22;10828;47.064;15.422;2023-05-07T14:11:25;18.20;99.90
21340;DHT22;10828;47.064;15.422;2023-05-07T16:56:23;17.80;99.90
21340;DHT22;10828;47.064;15.422;2023-05-07T16:58:48;17.90;99.90
21340;DHT22;10828;47.064;15.422;2023-05-07T17:01:15;17.80;99.90
21340;DHT22;10828;47.064;15.422;2023-05-07T17:03:49;17.80;99.90
21340;DHT22;10828;47.064;15.422;2023-05-07T17:06:17;17.80;99.90
21340;DHT22;10828;47.064;15.422;2023-05-07T17:08:43;17.70;99.90
21340;DHT22;10828;47.064;15.422;2023-05-07T17:11:11;17.70;99.90
21340;DHT22;10828;47.064;15.422;2023-05-07T17:13:37;17.70;99.90
21340;DHT22;10828;47.064;15.422;2023-05-07T17:16:03;17.50;99.90
21340;DHT22;10828;47.064;15.422;2023-05-07T17:18:31;17.50;99.90
21340;DHT22;10828;47.064;15.422;2023-05-07T17:20:58;17.60;99.90
21340;DHT22;10828;47.064;15.422;2023-05-07T17:23:24;17.60;99.90
21340;DHT22;10828;47.064;15.422;2023-05-07T17:25:50;17.50;99.90
21340;DHT22;10828;47.064;15.422;2023-05-07T17:28:16;17.40;99.90
21340;DHT22;10828;47.064;15.422;2023-05-07T17:30:42;17.30;99.90
21340;DHT22;10828;47.064;15.422;2023-05-07T17:33:08;17.20;99.90
21340;DHT22;10828;47.064;15.422;2023-05-07T17:35:35;17.20;99.90
21340;DHT22;10828;47.064;15.422;2023-05-07T17:38:02;17.10;99.90
21340;DHT22;10828;47.064;15.422;2023-05-07T17:40:30;17.00;99.90
21340;DHT22;10828;47.064;15.422;2023-05-07T17:42:56;17.00;99.90
21340;DHT22;10828;47.064;15.422;2023-05-07T17:45:22;17.10;99.90
21340;DHT22;10828;47.064;15.422;2023-05-07T17:47:48;16.90;99.90
21340;DHT22;10828;47.064;15.422;2023-05-07T17:50:14;16.80;99.90
21340;DHT22;10828;47.064;15.422;2023-05-07T17:52:40;16.70;99.90
21340;DHT22;10828;47.064;15.422;2023-05-07T17:55:07;16.70;99.90
21340;DHT22;10828;47.064;15.422;2023-05-07T17:57:33;16.70;99.90
21340;DHT22;10828;47.064;15.422;2023-05-07T18:00:05;16.60;99.90
21340;DHT22;10828;47.064;15.422;2023-05-07T18:02:34;16.70;99.90
21340;DHT22;10828;47.064;15.422;2023-05-07T18:05:05;16.70;99.90
21340;DHT22;10828;47.064;15.422;2023-05-07T18:07:41;16.60;99.90
21340;DHT22;10828;47.064;15.422;2023-05-07T18:10:09;16.70;99.90
21340;DHT22;10828;47.064;15.422;2023-05-07T18:12:35;16.70;99.90
21340;DHT22;10828;47.064;15.422;2023-05-07T18:15:07;16.70;99.90
21340;DHT22;10828;47.064;15.422;2023-05-07T18:17:34;16.60;99.90
21340;DHT22;10828;47.064;15.422;2023-05-07T18:20:00;16.50;99.90
21340;DHT22;10828;47.064;15.422;2023-05-07T18:22:27;16.50;99.90
21340;DHT22;10828;47.064;15.422;2023-05-07T18:25:03;16.50;99.90
21340;DHT22;10828;47.064;15.422;2023-05-07T18:27:30;16.50;99.90
21340;DHT22;10828;47.064;15.422;2023-05-07T18:29:57;16.50;99.90
21340;DHT22;10828;47.064;15.422;2023-05-07T18:32:24;16.50;99.90
21340;DHT22;10828;47.064;15.422;2023-05-07T18:34:51;16.40;99.90
21340;DHT22;10828;47.064;15.422;2023-05-07T18:37:21;16.40;99.90
21340;DHT22;10828;47.064;15.422;2023-05-07T18:40:01;16.30;99.90
21340;DHT22;10828;47.064;15.422;2023-05-07T18:42:37;16.30;99.90
21340;DHT22;10828;47.064;15.422;2023-05-07T18:45:09;16.20;99.90
21340;DHT22;10828;47.064;15.422;2023-05-07T18:47:38;16.20;99.90
21340;DHT22;10828;47.064;15.422;2023-05-07T18:50:18;16.20;99.90
21340;DHT22;10828;47.064;15.422;2023-05-07T18:52:59;16.10;99.90
21340;DHT22;10828;47.064;15.422;2023-05-07T19:34:54;16.00;99.90
21340;DHT22;10828;47.064;15.422;2023-05-07T19:37:27;16.00;99.90
21340;DHT22;10828;47.064;15.422;2023-05-07T19:40:02;16.00;99.90
21340;DHT22;10828;47.064;15.422;2023-05-07T19:42:37;16.00;99.90
21340;DHT22;10828;47.064;15.422;2023-05-07T19:45:11;16.10;99.90
21340;DHT22;10828;47.064;15.422;2023-05-07T19:47:39;16.00;99.90
21340;DHT22;10828;47.064;15.422;2023-05-07T19:50:07;16.00;99.90
21340;DHT22;10828;47.064;15.422;2023-05-07T19:52:36;16.00;99.90
21340;DHT22;10828;47.064;15.422;2023-05-07T19:55:23;16.10;99.90
21340;DHT22;10828;47.064;15.422;2023-05-07T19:57:57;16.10;99.90
21340;DHT22;10828;47.064;15.422;2023-05-07T20:00:29;16.00;99.90
21340;DHT22;10828;47.064;15.422;2023-05-07T20:02:58;16.00;99.90
21340;DHT22;10828;47.064;15.422;2023-05-07T20:05:32;16.00;99.90
21340;DHT22;10828;47.064;15.422;2023-05-07T20:31:17;16.00;99.90
21340;DHT22;10828;47.064;15.422;2023-05-07T20:33:45;16.00;99.90
21340;DHT22;10828;47.064;15.422;2023-05-07T20:36:11;16.10;99.90
21340;DHT22;10828;47.064;15.422;2023-05-07T20:38:51;16.20;99.90
21340;DHT22;10828;47.064;15.422;2023-05-07T20:41:22;16.00;99.90
21340;DHT22;10828;47.064;15.422;2023-05-07T20:43:52;15.90;99.90
21340;DHT22;10828;47.064;15.422;2023-05-07T20:46:25;16.00;99.90
21340;DHT22;10828;47.064;15.422;2023-05-07T20:48:55;16.00;99.90
21340;DHT22;10828;47.064;15.422;2023-05-07T20:51:29;16.00;99.90
21340;DHT22;10828;47.064;15.422;2023-05-07T20:54:01;16.00;99.90
21340;DHT22;10828;47.064;15.422;2023-05-07T20:56:30;16.00;99.90
21340;DHT22;10828;47.064;15.422;2023-05-07T20:58:57;15.90;99.90
21340;DHT22;10828;47.064;15.422;2023-05-07T21:01:25;15.90;99.90
21340;DHT22;10828;47.064;15.422;2023-05-07T21:03:54;15.80;99.90
21340;DHT22;10828;47.064;15.422;2023-05-07T21:06:22;15.80;99.90
21340;DHT22;10828;47.064;15.422;2023-05-07T21:08:49;15.80;99.90
21340;DHT22;10828;47.064;15.422;2023-05-07T21:11:28;15.70;99.90
21340;DHT22;10828;47.064;15.422;2023-05-07T21:13:55;15.70;99.90
21340;DHT22;10828;47.064;15.422;2023-05-07T21:16:22;15.70;99.90
21340;DHT22;10828;47.064;15.422;2023-05-07T21:18:50;15.70;99.90
21340;DHT22;10828;47.064;15.422;2023-05-07T21:21:23;15.80;99.90
21340;DHT22;10828;47.064;15.422;2023-05-07T21:23:56;15.80;99.90
21340;DHT22;10828;47.064;15.422;2023-05-07T21:26:24;15.70;99.90
21340;DHT22;10828;47.064;15.422;2023-05-07T21:28:51;15.70;99.90
21340;DHT22;10828;47.064;15.422;2023-05-07T21:31:19;15.70;99.90
21340;DHT22;10828;47.064;15.422;2023-05-07T21:33:46;15.70;99.90
21340;DHT22;10828;47.064;15.422;2023-05-07T21:36:13;15.70;99.90
21340;DHT22;10828;47.064;15.422;2023-05-07T21:38:50;15.80;99.90
21340;DHT22;10828;47.064;15.422;2023-05-07T21:41:26;15.80;99.90
21340;DHT22;10828;47.064;15.422;2023-05-07T21:44:03;15.90;99.90
21340;DHT22;10828;47.064;15.422;2023-05-07T21:46:31;15.90;99.90
21340;DHT22;10828;47.064;15.422;2023-05-07T21:49:00;16.00;99.90
21340;DHT22;10828;47.064;15.422;2023-05-07T21:51:26;16.10;99.90
21340;DHT22;10828;47.064;15.422;2023-05-07T21:53:54;16.10;99.90
21340;DHT22;10828;47.064;15.422;2023-05-07T21:56:22;16.10;99.90
21340;DHT22;10828;47.064;15.422;2023-05-07T21:58:48;16.10;99.90
21340;DHT22;10828;47.064;15.422;2023-05-07T22:01:16;16.00;99.90
21340;DHT22;10828;47.064;15.422;2023-05-07T22:03:50;15.90;99.90
21340;DHT22;10828;47.064;15.422;2023-05-07T22:06:18;15.90;99.90
21340;DHT22;10828;47.064;15.422;2023-05-07T22:08:48;15.90;99.90
21340;DHT22;10828;47.064;15.422;2023-05-07T22:11:21;15.90;99.90
21340;DHT22;10828;47.064;15.422;2023-05-07T22:13:48;15.90;99.90
21340;DHT22;10828;47.064;15.422;2023-05-07T22:16:17;15.90;99.90
21340;DHT22;10828;47.064;15.422;2023-05-07T22:18:45;15.80;99.90
21340;DHT22;10828;47.064;15.422;2023-05-07T22:21:16;15.80;99.90
21340;DHT22;10828;47.064;15.422;2023-05-07T22:23:43;15.70;99.90
21340;DHT22;10828;47.064;15.422;2023-05-07T22:26:15;15.70;99.90
21340;DHT22;10828;47.064;15.422;2023-05-07T22:28:43;15.70;99.90
21340;DHT22;10828;47.064;15.422;2023-05-07T22:31:12;15.70;99.90
21340;DHT22;10828;47.064;15.422;2023-05-07T22:33:38;15.70;99.90
21340;DHT22;10828;47.064;15.422;2023-05-07T22:36:06;15.50;99.90
21340;DHT22;10828;47.064;15.422;2023-05-07T22:38:39;15.50;99.90
21340;DHT22;10828;47.064;15.422;2023-05-07T22:41:07;15.50;99.90
21340;DHT22;10828;47.064;15.422;2023-05-07T22:43:33;15.50;99.90
21340;DHT22;10828;47.064;15.422;2023-05-07T22:46:00;15.40;99.90
21340;DHT22;10828;47.064;15.422;2023-05-07T22:48:29;15.30;99.90
21340;DHT22;10828;47.064;15.422;2023-05-07T22:50:57;15.20;99.90
21340;DHT22;10828;47.064;15.422;2023-05-07T22:53:23;15.20;99.90
21340;DHT22;10828;47.064;15.422;2023-05-07T22:55:50;15.20;99.90
21340;DHT22;10828;47.064;15.422;2023-05-07T22:58:17;15.20;99.90
21340;DHT22;10828;47.064;15.422;2023-05-07T23:00:44;15.20;99.90
21340;DHT22;10828;47.064;15.422;2023-05-07T23:03:10;15.10;99.90
21340;DHT22;10828;47.064;15.422;2023-05-07T23:05:37;15.10;99.90
21340;DHT22;10828;47.064;15.422;2023-05-07T23:08:03;15.10;99.90
21340;DHT22;10828;47.064;15.422;2023-05-07T23:10:30;15.10;99.90
21340;DHT22;10828;47.064;15.422;2023-05-07T23:13:00;15.00;99.90
21340;DHT22;10828;47.064;15.422;2023-05-07T23:15:32;15.00;99.90
21340;DHT22;10828;47.064;15.422;2023-05-07T23:17:57;14.90;99.90
21340;DHT22;10828;47.064;15.422;2023-05-07T23:20:23;14.90;99.90
21340;DHT22;10828;47.064;15.422;2023-05-07T23:22:49;14.80;99.90
21340;DHT22;10828;47.064;15.422;2023-05-07T23:25:15;14.80;99.90
21340;DHT22;10828;47.064;15.422;2023-05-07T23:27:44;14.70;99.90
21340;DHT22;10828;47.064;15.422;2023-05-07T23:30:11;14.70;99.90
21340;DHT22;10828;47.064;15.422;2023-05-07T23:32:38;14.50;99.90
21340;DHT22;10828;47.064;15.422;2023-05-07T23:35:10;14.50;99.90
21340;DHT22;10828;47.064;15.422;2023-05-07T23:37:36;14.40;99.90
21340;DHT22;10828;47.064;15.422;2023-05-07T23:40:09;14.40;99.90
21340;DHT22;10828;47.064;15.422;2023-05-07T23:42:35;14.40;99.90